createdAt,value
2018-07-27T00:00:51.367Z,24.40
2018-07-27T00:03:22.544Z,24.20
2018-07-27T00:05:54.112Z,24.10
2018-07-27T00:08:25.427Z,24.00
2018-07-27T00:10:56.687Z,23.80
2018-07-27T00:13:28.085Z,23.80
2018-07-27T00:15:59.251Z,23.80
2018-07-27T00:18:30.596Z,23.80
2018-07-27T00:21:01.790Z,23.70
2018-07-27T00:23:32.952Z,23.70
2018-07-27T00:26:04.195Z,23.50
2018-07-27T00:28:35.351Z,23.40
2018-07-27T00:31:06.497Z,23.30
2018-07-27T00:33:37.624Z,23.20
2018-07-27T00:36:08.864Z,23.20
2018-07-27T00:38:39.946Z,23.20
2018-07-27T00:41:11.075Z,23.10
2018-07-27T00:43:42.175Z,23.00
2018-07-27T00:46:13.273Z,23.20
2018-07-27T00:48:44.450Z,23.40
2018-07-27T00:51:15.597Z,23.30
2018-07-27T00:53:46.766Z,23.30
2018-07-27T00:56:18.046Z,23.10
2018-07-27T00:58:50.423Z,23.00
2018-07-27T01:01:21.621Z,22.80
2018-07-27T01:03:53.228Z,22.60
2018-07-27T01:06:24.454Z,22.50
2018-07-27T01:08:55.830Z,22.30
2018-07-27T01:11:27.108Z,22.10
2018-07-27T01:13:58.291Z,22.00
2018-07-27T01:16:29.618Z,21.90
2018-07-27T01:19:00.778Z,21.70
2018-07-27T01:21:32.142Z,21.60
2018-07-27T01:24:03.366Z,21.40
2018-07-27T01:26:34.576Z,21.30
2018-07-27T01:29:05.920Z,21.20
2018-07-27T01:31:37.181Z,21.20
2018-07-27T01:34:08.555Z,21.30
2018-07-27T01:36:39.888Z,21.40
2018-07-27T01:39:15.851Z,21.40
2018-07-27T01:41:47.100Z,21.40
2018-07-27T01:44:18.351Z,21.30
2018-07-27T01:46:49.684Z,21.20
2018-07-27T01:49:20.890Z,21.10
2018-07-27T01:51:52.126Z,20.90
2018-07-27T01:54:23.362Z,20.70
2018-07-27T01:56:54.643Z,20.70
2018-07-27T01:59:26.007Z,20.50
2018-07-27T02:01:57.220Z,20.20
2018-07-27T02:04:28.497Z,20.20
2018-07-27T02:06:59.875Z,20.10
2018-07-27T02:09:31.426Z,20.10
2018-07-27T02:12:02.814Z,20.00
2018-07-27T02:14:34.005Z,19.80
2018-07-27T02:17:05.200Z,19.60
2018-07-27T02:19:36.468Z,19.40
2018-07-27T02:22:07.612Z,19.30
2018-07-27T02:24:38.603Z,19.10
2018-07-27T02:27:09.590Z,19.00
2018-07-27T02:29:40.819Z,19.00
2018-07-27T02:34:42.323Z,18.90
2018-07-27T02:37:13.600Z,18.80
2018-07-27T02:39:44.690Z,18.90
2018-07-27T02:42:15.772Z,18.90
2018-07-27T02:44:46.991Z,18.90
2018-07-27T02:47:18.209Z,18.80
2018-07-27T02:49:49.465Z,18.80
2018-07-27T02:52:20.567Z,18.70
2018-07-27T02:54:51.735Z,18.60
2018-07-27T02:57:22.891Z,18.50
2018-07-27T03:02:24.124Z,18.30
2018-07-27T03:04:55.295Z,18.40
2018-07-27T03:07:26.707Z,18.50
2018-07-27T03:09:57.928Z,18.60
2018-07-27T03:12:29.374Z,18.60
2018-07-27T03:15:00.765Z,18.70
2018-07-27T03:17:32.163Z,18.80
2018-07-27T03:20:03.476Z,18.80
2018-07-27T03:22:34.703Z,18.70
2018-07-27T03:25:06.552Z,18.60
2018-07-27T03:27:37.730Z,18.40
2018-07-27T03:30:09.583Z,18.30
2018-07-27T03:32:40.803Z,18.10
2018-07-27T03:35:11.999Z,18.00
2018-07-27T03:37:43.119Z,17.90
2018-07-27T03:40:14.355Z,18.00
2018-07-27T03:42:45.676Z,18.20
2018-07-27T03:45:16.974Z,18.40
2018-07-27T03:47:48.099Z,18.70
2018-07-27T03:50:19.274Z,18.90
2018-07-27T03:52:50.978Z,18.80
2018-07-27T03:55:22.123Z,18.80
2018-07-27T03:57:53.236Z,18.90
2018-07-27T04:00:24.525Z,19.00
2018-07-27T04:02:55.787Z,19.00
2018-07-27T04:05:27.631Z,19.00
2018-07-27T04:07:59.103Z,19.00
2018-07-27T04:13:00.558Z,18.80
2018-07-27T04:15:31.805Z,18.70
2018-07-27T04:18:03.618Z,18.70
2018-07-27T04:20:34.920Z,18.70
2018-07-27T04:23:06.576Z,18.70
2018-07-27T04:25:38.057Z,18.70
2018-07-27T04:28:09.352Z,18.70
2018-07-27T04:30:40.735Z,18.70
2018-07-27T04:33:12.104Z,18.60
2018-07-27T04:35:43.300Z,18.60
2018-07-27T04:38:14.667Z,18.60
2018-07-27T04:40:45.864Z,18.60
2018-07-27T04:43:17.209Z,18.40
2018-07-27T04:45:48.441Z,18.40
2018-07-27T04:48:19.458Z,18.30
2018-07-27T04:50:50.530Z,18.20
2018-07-27T04:53:21.734Z,18.20
2018-07-27T04:58:23.178Z,18.20
2018-07-27T05:03:24.628Z,18.20
2018-07-27T05:05:56.668Z,18.00
2018-07-27T05:08:27.901Z,18.00
2018-07-27T05:10:59.231Z,18.00
2018-07-27T05:13:30.333Z,17.80
2018-07-27T05:16:01.613Z,17.90
2018-07-27T05:18:32.774Z,17.80
2018-07-27T05:21:04.062Z,17.70
2018-07-27T05:23:35.282Z,17.70
2018-07-27T05:26:06.651Z,17.70
2018-07-27T05:28:38.050Z,17.60
2018-07-27T05:33:39.977Z,17.30
2018-07-27T05:36:11.258Z,17.20
2018-07-27T05:38:42.507Z,17.20
2018-07-27T05:41:13.786Z,17.20
2018-07-27T05:43:45.178Z,17.20
2018-07-27T05:46:16.618Z,17.30
2018-07-27T05:48:48.166Z,17.30
2018-07-27T05:51:19.534Z,17.30
2018-07-27T05:53:50.883Z,17.30
2018-07-27T05:56:22.201Z,17.30
2018-07-27T05:58:54.520Z,17.30
2018-07-27T06:06:26.544Z,17.40
2018-07-27T06:08:57.790Z,17.40
2018-07-27T06:11:29.059Z,17.40
2018-07-27T06:14:00.388Z,17.40
2018-07-27T06:16:31.775Z,17.50
2018-07-27T06:19:03.003Z,17.40
2018-07-27T06:21:34.168Z,17.40
2018-07-27T06:24:05.530Z,17.40
2018-07-27T06:26:36.769Z,17.40
2018-07-27T06:29:08.168Z,17.30
2018-07-27T06:31:39.351Z,17.30
2018-07-27T06:34:10.830Z,17.40
2018-07-27T06:36:41.954Z,17.30
2018-07-27T06:39:13.513Z,17.30
2018-07-27T06:41:44.997Z,17.30
2018-07-27T06:44:16.198Z,17.20
2018-07-27T06:46:47.467Z,17.20
2018-07-27T06:49:18.739Z,17.20
2018-07-27T06:51:50.130Z,17.30
2018-07-27T06:54:21.303Z,17.20
2018-07-27T06:56:52.520Z,17.20
2018-07-27T06:59:23.813Z,17.20
2018-07-27T07:01:55.122Z,17.20
2018-07-27T07:04:26.296Z,17.30
2018-07-27T07:06:57.574Z,17.20
2018-07-27T07:09:28.907Z,17.20
2018-07-27T07:12:00.287Z,17.20
2018-07-27T07:14:31.492Z,17.20
2018-07-27T07:17:02.831Z,17.30
2018-07-27T07:19:34.004Z,17.40
2018-07-27T07:22:05.333Z,17.60
2018-07-27T07:24:36.651Z,17.70
2018-07-27T07:27:07.959Z,17.90
2018-07-27T07:29:39.192Z,17.90
2018-07-27T07:32:10.327Z,18.00
2018-07-27T07:34:41.622Z,18.00
2018-07-27T07:37:12.809Z,18.00
2018-07-27T07:39:43.942Z,17.90
2018-07-27T07:42:15.147Z,17.80
2018-07-27T07:44:46.547Z,17.80
2018-07-27T07:47:17.771Z,17.90
2018-07-27T07:49:48.926Z,18.00
2018-07-27T07:52:20.263Z,18.10
2018-07-27T07:54:51.399Z,18.20
2018-07-27T07:57:22.837Z,18.20
2018-07-27T07:59:54.038Z,18.20
2018-07-27T08:07:25.744Z,18.10
2018-07-27T08:09:56.936Z,18.10
2018-07-27T08:12:28.162Z,18.10
2018-07-27T08:14:59.518Z,18.10
2018-07-27T08:17:30.839Z,18.10
2018-07-27T08:20:01.996Z,18.00
2018-07-27T08:22:33.158Z,17.90
2018-07-27T08:25:04.707Z,17.90
2018-07-27T08:27:35.850Z,17.90
2018-07-27T08:30:07.488Z,17.90
2018-07-27T08:32:38.689Z,18.00
2018-07-27T08:35:09.857Z,18.00
2018-07-27T08:37:41.273Z,18.00
2018-07-27T08:40:12.454Z,17.90
2018-07-27T08:42:43.715Z,17.90
2018-07-27T08:45:14.978Z,17.90
2018-07-27T08:47:46.117Z,17.90
2018-07-27T08:50:17.446Z,18.00
2018-07-27T08:52:48.650Z,18.00
2018-07-27T08:55:19.731Z,18.00
2018-07-27T08:57:50.875Z,18.00
2018-07-27T09:00:30.832Z,17.90
2018-07-27T09:03:02.047Z,17.80
2018-07-27T09:05:33.263Z,17.70
2018-07-27T09:08:04.575Z,17.60
2018-07-27T09:10:35.887Z,17.50
2018-07-27T09:13:07.211Z,17.40
2018-07-27T09:15:38.438Z,17.30
2018-07-27T09:18:09.753Z,17.30
2018-07-27T09:20:41.062Z,17.20
2018-07-27T09:23:12.155Z,17.10
2018-07-27T09:25:43.315Z,17.00
2018-07-27T09:28:14.696Z,17.00
2018-07-27T09:30:45.826Z,17.00
2018-07-27T09:35:47.788Z,16.90
2018-07-27T09:38:19.149Z,16.80
2018-07-27T09:40:50.704Z,16.70
2018-07-27T09:43:21.930Z,16.70
2018-07-27T09:45:53.291Z,16.60
2018-07-27T09:48:24.851Z,16.60
2018-07-27T09:50:56.557Z,16.60
2018-07-27T09:53:27.759Z,16.60
2018-07-27T09:55:59.199Z,16.50
2018-07-27T09:58:30.412Z,16.60
2018-07-27T10:01:06.054Z,16.50
2018-07-27T10:03:37.398Z,16.50
2018-07-27T10:06:08.832Z,16.50
2018-07-27T10:08:40.115Z,16.50
2018-07-27T10:11:11.433Z,16.50
2018-07-27T10:13:42.628Z,16.50
2018-07-27T10:16:13.889Z,16.50
2018-07-27T10:18:45.075Z,16.50
2018-07-27T10:21:16.248Z,16.50
2018-07-27T10:23:47.622Z,16.50
2018-07-27T10:26:18.913Z,16.50
2018-07-27T10:28:50.038Z,16.50
2018-07-27T10:31:21.301Z,16.50
2018-07-27T10:36:22.658Z,16.50
2018-07-27T10:38:53.844Z,16.60
2018-07-27T10:41:24.975Z,16.60
2018-07-27T10:43:56.427Z,16.70
2018-07-27T10:46:27.680Z,16.70
2018-07-27T10:48:58.964Z,16.80
2018-07-27T10:51:30.467Z,16.90
2018-07-27T10:54:01.580Z,16.90
2018-07-27T10:56:32.864Z,17.00
2018-07-27T10:59:04.175Z,17.10
2018-07-27T11:01:35.375Z,17.10
2018-07-27T11:04:06.608Z,17.30
2018-07-27T11:06:37.830Z,17.40
2018-07-27T11:09:11.189Z,17.60
2018-07-27T11:11:42.504Z,17.80
2018-07-27T11:14:13.934Z,18.10
2018-07-27T11:16:45.136Z,18.30
2018-07-27T11:21:46.694Z,18.40
2018-07-27T11:24:18.001Z,18.30
2018-07-27T11:26:49.254Z,18.30
2018-07-27T11:29:20.395Z,18.30
2018-07-27T11:31:51.723Z,18.30
2018-07-27T11:34:23.076Z,18.30
2018-07-27T11:36:54.568Z,18.40
2018-07-27T11:39:25.822Z,18.40
2018-07-27T11:41:57.127Z,18.40
2018-07-27T11:44:28.280Z,18.40
2018-07-27T11:46:59.431Z,18.40
2018-07-27T11:49:30.583Z,18.40
2018-07-27T11:52:01.943Z,18.40
2018-07-27T11:54:33.398Z,18.50
2018-07-27T11:57:04.630Z,18.60
2018-07-27T11:59:36.072Z,18.70
2018-07-27T12:02:07.443Z,18.90
2018-07-27T12:07:09.166Z,19.00
2018-07-27T12:09:40.443Z,19.00
2018-07-27T12:12:11.789Z,19.00
2018-07-27T12:14:43.051Z,19.10
2018-07-27T12:17:14.294Z,19.20
2018-07-27T12:19:45.546Z,19.20
2018-07-27T12:22:16.807Z,19.30
2018-07-27T12:24:48.042Z,19.50
2018-07-27T12:27:19.258Z,19.60
2018-07-27T12:29:50.347Z,19.90
2018-07-27T12:32:21.611Z,20.20
2018-07-27T12:34:52.768Z,20.40
2018-07-27T12:37:24.017Z,20.70
2018-07-27T12:39:55.475Z,21.00
2018-07-27T12:42:26.749Z,21.30
2018-07-27T12:44:57.861Z,21.60
2018-07-27T12:47:29.138Z,21.70
2018-07-27T12:50:00.398Z,21.80
2018-07-27T12:52:31.635Z,21.70
2018-07-27T12:55:02.934Z,21.80
2018-07-27T12:57:34.307Z,21.90
2018-07-27T13:00:05.851Z,21.90
2018-07-27T13:02:37.346Z,21.90
2018-07-27T13:05:08.671Z,22.00
2018-07-27T13:07:39.950Z,22.10
2018-07-27T13:10:11.138Z,22.20
2018-07-27T13:12:42.370Z,22.50
2018-07-27T13:15:13.733Z,22.60
2018-07-27T13:17:44.936Z,22.70
2018-07-27T13:20:16.403Z,22.70
2018-07-27T13:22:49.394Z,22.90
2018-07-27T13:25:20.823Z,22.90
2018-07-27T13:27:52.193Z,23.00
2018-07-27T13:30:24.174Z,23.00
2018-07-27T13:32:55.746Z,22.90
2018-07-27T13:40:27.514Z,22.70
2018-07-27T13:42:58.790Z,22.90
2018-07-27T13:45:29.947Z,23.00
2018-07-27T13:48:01.125Z,23.10
2018-07-27T13:50:32.273Z,23.20
2018-07-27T13:53:03.414Z,23.30
2018-07-27T13:55:34.584Z,23.40
2018-07-27T13:58:05.851Z,23.50
2018-07-27T14:00:36.968Z,23.50
2018-07-27T14:03:08.226Z,23.30
2018-07-27T14:05:39.455Z,23.30
2018-07-27T14:08:10.748Z,23.40
2018-07-27T14:10:42.152Z,23.50
2018-07-27T14:13:13.447Z,24.00
2018-07-27T14:15:44.656Z,24.20
2018-07-27T14:18:15.872Z,24.00
2018-07-27T14:20:46.945Z,24.00
2018-07-27T14:23:18.308Z,24.20
2018-07-27T14:25:49.541Z,24.40
2018-07-27T14:28:20.832Z,24.30
2018-07-27T14:30:52.078Z,24.20
2018-07-27T14:33:23.275Z,24.10
2018-07-27T14:35:54.455Z,24.10
2018-07-27T14:38:25.712Z,24.30
2018-07-27T14:40:56.871Z,24.50
2018-07-27T14:43:28.142Z,25.10
2018-07-27T14:45:59.362Z,25.50
2018-07-27T14:48:30.651Z,25.50
2018-07-27T14:51:02.051Z,25.40
2018-07-27T14:53:33.604Z,25.40
2018-07-27T14:56:04.906Z,25.40
2018-07-27T14:58:36.175Z,25.90
2018-07-27T15:01:07.699Z,25.50
2018-07-27T15:03:39.023Z,25.20
2018-07-27T15:06:10.215Z,25.50
2018-07-27T15:08:41.498Z,25.30
2018-07-27T15:11:12.888Z,25.00
2018-07-27T15:13:44.065Z,25.30
2018-07-27T15:16:15.540Z,25.20
2018-07-27T15:18:47.016Z,24.90
2018-07-27T15:21:18.311Z,25.00
2018-07-27T15:23:49.619Z,25.60
2018-07-27T15:26:20.819Z,26.20
2018-07-27T15:28:52.283Z,26.60
2018-07-27T15:31:23.506Z,26.70
2018-07-27T15:33:54.687Z,27.00
2018-07-27T15:36:25.807Z,26.60
2018-07-27T15:38:56.933Z,26.20
2018-07-27T15:41:28.144Z,26.20
2018-07-27T15:43:59.227Z,26.30
2018-07-27T15:46:30.380Z,26.70
2018-07-27T15:49:01.610Z,26.90
2018-07-27T15:51:32.851Z,26.40
2018-07-27T15:54:04.070Z,26.20
2018-07-27T15:56:35.452Z,26.00
2018-07-27T16:01:36.735Z,26.00
2018-07-27T16:04:08.111Z,26.10
2018-07-27T16:06:39.406Z,26.20
2018-07-27T16:09:11.139Z,26.60
2018-07-27T16:11:42.252Z,26.40
2018-07-27T16:14:13.526Z,26.90
2018-07-27T16:16:44.844Z,27.50
2018-07-27T16:19:15.978Z,27.10
2018-07-27T16:21:47.299Z,27.30
2018-07-27T16:24:18.572Z,27.80
2018-07-27T16:26:49.939Z,27.90
2018-07-27T16:29:21.488Z,27.40
2018-07-27T16:31:52.975Z,26.70
2018-07-27T16:34:24.233Z,26.50
2018-07-27T16:36:55.338Z,26.50
2018-07-27T16:39:26.683Z,26.70
2018-07-27T16:41:57.907Z,26.90
2018-07-27T16:44:29.108Z,27.80
2018-07-27T16:47:00.203Z,28.50
2018-07-27T16:49:31.447Z,28.60
2018-07-27T16:52:02.567Z,27.90
2018-07-27T16:54:33.695Z,27.60
2018-07-27T16:57:04.772Z,27.30
2018-07-27T16:59:36.025Z,28.00
2018-07-27T17:02:07.562Z,28.70
2018-07-27T17:04:39.059Z,28.90
2018-07-27T17:07:10.211Z,28.80
2018-07-27T17:09:41.535Z,28.40
2018-07-27T17:12:12.851Z,28.30
2018-07-27T17:14:43.921Z,27.80
2018-07-27T17:17:15.223Z,28.60
2018-07-27T17:19:46.504Z,29.00
2018-07-27T17:22:17.765Z,29.10
2018-07-27T17:24:48.907Z,29.80
2018-07-27T17:27:20.065Z,29.50
2018-07-27T17:29:51.332Z,29.50
2018-07-27T17:32:22.495Z,29.30
2018-07-27T17:34:53.813Z,29.20
2018-07-27T17:37:25.011Z,29.60
2018-07-27T17:39:56.423Z,28.80
2018-07-27T17:42:27.543Z,29.00
2018-07-27T17:44:58.751Z,29.30
2018-07-27T17:47:29.961Z,29.40
2018-07-27T17:50:01.065Z,29.80
2018-07-27T17:52:32.363Z,29.90
2018-07-27T17:55:03.524Z,29.70
2018-07-27T17:57:34.629Z,29.60
2018-07-27T18:00:06.215Z,30.20
2018-07-27T18:02:37.927Z,30.20
2018-07-27T18:05:09.311Z,29.60
2018-07-27T18:07:40.658Z,29.30
2018-07-27T18:10:11.829Z,29.70
2018-07-27T18:12:43.147Z,30.10
2018-07-27T18:15:14.243Z,30.20
2018-07-27T18:17:45.451Z,30.00
2018-07-27T18:20:17.664Z,29.60
2018-07-27T18:22:48.930Z,29.90
2018-07-27T18:25:20.341Z,29.80
2018-07-27T18:27:51.786Z,29.70
2018-07-27T18:30:23.164Z,28.90
2018-07-27T18:32:54.384Z,28.80
2018-07-27T18:35:25.848Z,29.00
2018-07-27T18:37:57.254Z,29.60
2018-07-27T18:40:28.472Z,30.00
2018-07-27T18:42:59.956Z,30.20
2018-07-27T18:45:31.499Z,30.40
2018-07-27T18:48:02.774Z,30.30
2018-07-27T18:50:34.051Z,30.00
2018-07-27T18:53:05.203Z,30.20
2018-07-27T18:55:36.515Z,29.50
2018-07-27T18:58:07.834Z,29.60
2018-07-27T19:00:39.120Z,30.10
2018-07-27T19:03:10.376Z,29.60
2018-07-27T19:05:41.594Z,29.80
2018-07-27T19:08:12.832Z,29.90
2018-07-27T19:10:44.207Z,29.50
2018-07-27T19:13:15.472Z,28.80
2018-07-27T19:15:46.871Z,28.60
2018-07-27T19:18:18.164Z,29.20
2018-07-27T19:20:49.505Z,29.50
2018-07-27T19:23:20.712Z,29.20
2018-07-27T19:25:52.118Z,29.40
2018-07-27T19:30:53.751Z,28.90
2018-07-27T19:33:24.999Z,29.40
2018-07-27T19:35:56.230Z,29.80
2018-07-27T19:38:27.552Z,29.70
2018-07-27T19:40:58.938Z,29.60
2018-07-27T19:43:30.270Z,29.50
2018-07-27T19:46:01.726Z,29.40
2018-07-27T19:48:33.112Z,29.10
2018-07-27T19:51:04.607Z,28.80
2018-07-27T19:53:35.866Z,29.10
2018-07-27T19:56:07.262Z,28.80
2018-07-27T19:58:38.495Z,28.10
2018-07-27T20:01:09.723Z,27.50
2018-07-27T20:03:40.819Z,27.90
2018-07-27T20:06:12.153Z,28.60
2018-07-27T20:08:43.551Z,28.30
2018-07-27T20:11:14.671Z,28.60
2018-07-27T20:13:46.006Z,29.00
2018-07-27T20:16:17.107Z,28.20
2018-07-27T20:18:48.387Z,27.90
2018-07-27T20:21:19.655Z,27.70
2018-07-27T20:23:50.947Z,28.50
2018-07-27T20:26:22.176Z,29.20
2018-07-27T20:28:53.619Z,29.70
2018-07-27T20:31:25.002Z,30.10
2018-07-27T20:33:56.203Z,30.30
2018-07-27T20:36:27.882Z,30.10
2018-07-27T20:38:59.172Z,30.00
2018-07-27T20:41:30.347Z,29.60
2018-07-27T20:44:01.708Z,29.10
2018-07-27T20:46:33.142Z,28.30
2018-07-27T20:49:04.361Z,28.10
2018-07-27T20:51:35.700Z,28.00
2018-07-27T20:54:07.036Z,28.10
2018-07-27T20:56:38.454Z,28.40
2018-07-27T20:59:09.769Z,27.80
2018-07-27T21:01:40.964Z,27.90
2018-07-27T21:04:14.075Z,27.80
2018-07-27T21:06:45.344Z,27.90
2018-07-27T21:09:16.701Z,27.40
2018-07-27T21:11:48.018Z,27.10
2018-07-27T21:14:19.396Z,27.80
2018-07-27T21:16:50.625Z,28.20
2018-07-27T21:19:21.978Z,28.30
2018-07-27T21:21:53.339Z,28.60
2018-07-27T21:24:24.572Z,29.10
2018-07-27T21:29:25.990Z,29.40
2018-07-27T21:31:57.198Z,29.60
2018-07-27T21:34:28.495Z,29.40
2018-07-27T21:36:59.765Z,29.20
2018-07-27T21:39:31.087Z,29.30
2018-07-27T21:42:02.282Z,29.30
2018-07-27T21:44:33.730Z,29.50
2018-07-27T21:47:05.628Z,29.50
2018-07-27T21:49:36.982Z,29.40
2018-07-27T21:52:08.616Z,29.10
2018-07-27T21:54:39.883Z,29.60
2018-07-27T21:57:11.127Z,28.90
2018-07-27T21:59:42.675Z,28.60
2018-07-27T22:02:13.921Z,28.70
2018-07-27T22:04:45.131Z,28.20
2018-07-27T22:07:16.367Z,28.50
2018-07-27T22:12:17.949Z,27.10
2018-07-27T22:14:49.034Z,26.70
2018-07-27T22:17:20.206Z,27.00
2018-07-27T22:19:51.395Z,27.50
2018-07-27T22:22:22.738Z,28.10
2018-07-27T22:24:54.082Z,28.30
2018-07-27T22:27:25.501Z,28.40
2018-07-27T22:29:56.767Z,28.50
2018-07-27T22:32:28.034Z,28.60
2018-07-27T22:34:59.314Z,28.80
2018-07-27T22:37:30.584Z,28.80
2018-07-27T22:40:01.766Z,28.60
2018-07-27T22:42:32.942Z,28.40
2018-07-27T22:45:04.323Z,28.70
2018-07-27T22:47:35.604Z,28.70
2018-07-27T22:50:07.211Z,28.50
2018-07-27T22:52:40.436Z,28.30
2018-07-27T22:55:14.396Z,28.30
2018-07-27T22:57:45.659Z,28.10
2018-07-27T23:00:17.467Z,28.10
2018-07-27T23:02:48.678Z,28.00
2018-07-27T23:05:19.934Z,27.80
2018-07-27T23:07:51.123Z,27.90
2018-07-27T23:10:22.392Z,27.80
2018-07-27T23:12:53.740Z,27.60
2018-07-27T23:15:25.062Z,27.40
2018-07-27T23:17:56.279Z,27.20
2018-07-27T23:20:27.481Z,27.00
2018-07-27T23:22:58.767Z,26.80
2018-07-27T23:25:30.202Z,26.50
2018-07-27T23:28:01.549Z,26.50
2018-07-27T23:30:32.894Z,26.30
2018-07-27T23:33:04.132Z,26.10
2018-07-27T23:35:35.378Z,25.90
2018-07-27T23:38:06.747Z,25.60
2018-07-27T23:40:38.037Z,25.30
2018-07-27T23:43:09.254Z,25.10
2018-07-27T23:45:40.528Z,24.90
2018-07-27T23:48:11.839Z,24.70
2018-07-27T23:50:43.050Z,24.60
2018-07-27T23:53:14.364Z,24.50
2018-07-27T23:55:45.791Z,24.40
2018-07-27T23:58:17.029Z,24.20
